sensor_id;sensor_type;location;lat;lon;timestamp;pressure;altitude;pressure_sealevel;temperature;humidity
46778;BME280;32536;47.128;8.746;2024-02-21T00:02:21;92545.16;;;6.67;56.13
46778;BME280;32536;47.128;8.746;2024-02-21T00:04:47;92543.19;;;6.64;56.42
46778;BME280;32536;47.128;8.746;2024-02-21T00:07:14;92543.25;;;6.67;56.03
46778;BME280;32536;47.128;8.746;2024-02-21T00:09:41;92555.50;;;6.72;55.80
46778;BME280;32536;47.128;8.746;2024-02-21T00:12:09;92546.81;;;6.75;56.56
46778;BME280;32536;47.128;8.746;2024-02-21T00:14:35;92550.53;;;6.70;56.43
46778;BME280;32536;47.128;8.746;2024-02-21T00:17:02;92543.59;;;6.66;56.49
46778;BME280;32536;47.128;8.746;2024-02-21T00:19:29;92542.91;;;6.69;56.53
46778;BME280;32536;47.128;8.746;2024-02-21T00:21:55;92543.31;;;6.71;55.94
46778;BME280;32536;47.128;8.746;2024-02-21T00:24:22;92549.09;;;6.77;56.15
46778;BME280;32536;47.128;8.746;2024-02-21T00:26:49;92552.25;;;6.82;56.04
46778;BME280;32536;47.128;8.746;2024-02-21T00:29:16;92542.75;;;6.85;55.65
46778;BME280;32536;47.128;8.746;2024-02-21T00:31:42;92544.25;;;6.82;56.09
46778;BME280;32536;47.128;8.746;2024-02-21T00:34:10;92545.66;;;6.76;56.32
46778;BME280;32536;47.128;8.746;2024-02-21T00:36:38;92542.53;;;6.70;56.18
46778;BME280;32536;47.128;8.746;2024-02-21T00:39:05;92535.63;;;6.66;56.04
46778;BME280;32536;47.128;8.746;2024-02-21T00:41:32;92534.03;;;6.61;56.73
46778;BME280;32536;47.128;8.746;2024-02-21T00:43:59;92521.84;;;6.60;56.93
46778;BME280;32536;47.128;8.746;2024-02-21T00:46:25;92525.28;;;6.61;56.02
46778;BME280;32536;47.128;8.746;2024-02-21T00:48:52;92528.28;;;6.59;55.64
46778;BME280;32536;47.128;8.746;2024-02-21T00:51:19;92529.81;;;6.60;55.48
46778;BME280;32536;47.128;8.746;2024-02-21T00:53:46;92523.38;;;6.61;55.33
46778;BME280;32536;47.128;8.746;2024-02-21T00:56:13;92530.25;;;6.62;55.21
46778;BME280;32536;47.128;8.746;2024-02-21T00:58:39;92526.03;;;6.61;55.97
46778;BME280;32536;47.128;8.746;2024-02-21T01:01:06;92522.63;;;6.61;55.51
46778;BME280;32536;47.128;8.746;2024-02-21T01:03:33;92521.06;;;6.60;55.72
46778;BME280;32536;47.128;8.746;2024-02-21T01:06:00;92514.56;;;6.57;55.33
46778;BME280;32536;47.128;8.746;2024-02-21T01:08:26;92509.63;;;6.55;55.45
46778;BME280;32536;47.128;8.746;2024-02-21T01:10:53;92498.13;;;6.51;55.59
46778;BME280;32536;47.128;8.746;2024-02-21T01:13:20;92501.84;;;6.47;55.00
46778;BME280;32536;47.128;8.746;2024-02-21T01:15:46;92495.78;;;6.46;55.74
46778;BME280;32536;47.128;8.746;2024-02-21T01:18:13;92495.00;;;6.46;55.44
46778;BME280;32536;47.128;8.746;2024-02-21T01:20:40;92500.31;;;6.46;55.69
46778;BME280;32536;47.128;8.746;2024-02-21T01:23:07;92493.41;;;6.41;55.79
46778;BME280;32536;47.128;8.746;2024-02-21T01:25:34;92490.28;;;6.35;55.88
46778;BME280;32536;47.128;8.746;2024-02-21T01:28:00;92493.63;;;6.32;56.50
46778;BME280;32536;47.128;8.746;2024-02-21T01:30:27;92489.81;;;6.30;56.56
46778;BME280;32536;47.128;8.746;2024-02-21T01:32:54;92491.75;;;6.33;55.89
46778;BME280;32536;47.128;8.746;2024-02-21T01:35:21;92489.53;;;6.35;55.72
46778;BME280;32536;47.128;8.746;2024-02-21T01:37:47;92487.25;;;6.37;55.97
46778;BME280;32536;47.128;8.746;2024-02-21T01:40:14;92484.97;;;6.35;56.43
46778;BME280;32536;47.128;8.746;2024-02-21T01:42:41;92485.25;;;6.30;55.91
46778;BME280;32536;47.128;8.746;2024-02-21T01:45:08;92483.00;;;6.32;56.57
46778;BME280;32536;47.128;8.746;2024-02-21T01:47:36;92488.03;;;6.37;56.25
46778;BME280;32536;47.128;8.746;2024-02-21T01:50:04;92485.38;;;6.37;55.78
46778;BME280;32536;47.128;8.746;2024-02-21T01:52:32;92494.13;;;6.38;56.04
46778;BME280;32536;47.128;8.746;2024-02-21T01:55:01;92493.34;;;6.37;56.37
46778;BME280;32536;47.128;8.746;2024-02-21T01:57:29;92496.34;;;6.36;56.38
46778;BME280;32536;47.128;8.746;2024-02-21T01:59:55;92489.47;;;6.31;56.78
46778;BME280;32536;47.128;8.746;2024-02-21T02:02:22;92486.06;;;6.34;56.18
46778;BME280;32536;47.128;8.746;2024-02-21T02:04:49;92490.28;;;6.35;56.44
46778;BME280;32536;47.128;8.746;2024-02-21T02:07:16;92480.75;;;6.34;55.98
46778;BME280;32536;47.128;8.746;2024-02-21T02:09:43;92469.28;;;6.30;56.50
46778;BME280;32536;47.128;8.746;2024-02-21T02:12:10;92474.19;;;6.28;56.35
46778;BME280;32536;47.128;8.746;2024-02-21T02:14:36;92457.47;;;6.28;56.61
46778;BME280;32536;47.128;8.746;2024-02-21T02:17:03;92447.22;;;6.30;56.30
46778;BME280;32536;47.128;8.746;2024-02-21T02:19:31;92446.56;;;6.36;56.41
46778;BME280;32536;47.128;8.746;2024-02-21T02:22:14;92438.59;;;6.36;55.28
46778;BME280;32536;47.128;8.746;2024-02-21T02:24:48;92434.81;;;6.37;55.79
46778;BME280;32536;47.128;8.746;2024-02-21T02:27:15;92438.97;;;6.35;56.08
46778;BME280;32536;47.128;8.746;2024-02-21T02:29:42;92430.91;;;6.31;55.75
46778;BME280;32536;47.128;8.746;2024-02-21T02:32:09;92421.34;;;6.27;56.16
46778;BME280;32536;47.128;8.746;2024-02-21T02:34:36;92414.84;;;6.24;55.89
46778;BME280;32536;47.128;8.746;2024-02-21T02:37:03;92423.59;;;6.24;56.18
46778;BME280;32536;47.128;8.746;2024-02-21T02:39:30;92427.84;;;6.29;56.16
46778;BME280;32536;47.128;8.746;2024-02-21T02:41:57;92415.75;;;6.35;56.00
46778;BME280;32536;47.128;8.746;2024-02-21T02:44:23;92418.13;;;6.40;55.96
46778;BME280;32536;47.128;8.746;2024-02-21T02:46:50;92408.59;;;6.39;55.92
46778;BME280;32536;47.128;8.746;2024-02-21T02:49:17;92409.69;;;6.35;55.65
46778;BME280;32536;47.128;8.746;2024-02-21T02:51:44;92398.56;;;6.29;55.83
46778;BME280;32536;47.128;8.746;2024-02-21T02:54:11;92397.34;;;6.23;56.18
46778;BME280;32536;47.128;8.746;2024-02-21T02:56:38;92397.28;;;6.19;56.46
46778;BME280;32536;47.128;8.746;2024-02-21T02:59:05;92396.50;;;6.19;56.15
46778;BME280;32536;47.128;8.746;2024-02-21T03:01:34;92393.50;;;6.20;56.01
46778;BME280;32536;47.128;8.746;2024-02-21T03:04:01;92390.53;;;6.25;56.12
46778;BME280;32536;47.128;8.746;2024-02-21T03:06:28;92384.50;;;6.29;56.37
46778;BME280;32536;47.128;8.746;2024-02-21T03:08:55;92376.56;;;6.32;55.65
46778;BME280;32536;47.128;8.746;2024-02-21T03:11:22;92375.09;;;6.35;55.61
46778;BME280;32536;47.128;8.746;2024-02-21T03:13:55;92370.56;;;6.39;55.88
46778;BME280;32536;47.128;8.746;2024-02-21T03:16:22;92365.25;;;6.39;56.01
46778;BME280;32536;47.128;8.746;2024-02-21T03:18:49;92370.56;;;6.39;56.03
46778;BME280;32536;47.128;8.746;2024-02-21T03:21:16;92367.53;;;6.40;55.89
46778;BME280;32536;47.128;8.746;2024-02-21T03:23:42;92358.06;;;6.43;55.71
46778;BME280;32536;47.128;8.746;2024-02-21T03:26:09;92361.16;;;6.45;55.90
46778;BME280;32536;47.128;8.746;2024-02-21T03:28:36;92360.72;;;6.43;56.22
46778;BME280;32536;47.128;8.746;2024-02-21T03:31:05;92357.38;;;6.46;55.89
46778;BME280;32536;47.128;8.746;2024-02-21T03:33:32;92349.06;;;6.51;55.60
46778;BME280;32536;47.128;8.746;2024-02-21T03:35:58;92337.28;;;6.52;55.47
46778;BME280;32536;47.128;8.746;2024-02-21T03:38:25;92327.72;;;6.48;55.82
46778;BME280;32536;47.128;8.746;2024-02-21T03:40:52;92329.22;;;6.45;56.58
46778;BME280;32536;47.128;8.746;2024-02-21T03:43:19;92322.81;;;6.50;56.09
46778;BME280;32536;47.128;8.746;2024-02-21T03:45:45;92322.13;;;6.56;56.06
46778;BME280;32536;47.128;8.746;2024-02-21T03:48:43;92313.78;;;6.58;55.61
46778;BME280;32536;47.128;8.746;2024-02-21T03:51:11;92310.03;;;6.63;55.75
46778;BME280;32536;47.128;8.746;2024-02-21T03:53:38;92310.03;;;6.63;55.92
46778;BME280;32536;47.128;8.746;2024-02-21T03:56:05;92304.69;;;6.63;56.32
46778;BME280;32536;47.128;8.746;2024-02-21T03:58:33;92297.50;;;6.63;56.03
46778;BME280;32536;47.128;8.746;2024-02-21T04:01:00;92291.75;;;6.61;55.42
46778;BME280;32536;47.128;8.746;2024-02-21T04:03:28;92286.00;;;6.59;55.77
46778;BME280;32536;47.128;8.746;2024-02-21T04:05:56;92278.44;;;6.61;55.33
46778;BME280;32536;47.128;8.746;2024-02-21T04:08:23;92279.22;;;6.62;55.23
46778;BME280;32536;47.128;8.746;2024-02-21T04:10:50;92264.72;;;6.59;55.40
46778;BME280;32536;47.128;8.746;2024-02-21T04:13:16;92265.09;;;6.57;56.25
46778;BME280;32536;47.128;8.746;2024-02-21T04:15:43;92263.59;;;6.60;56.35
46778;BME280;32536;47.128;8.746;2024-02-21T04:18:10;92262.47;;;6.61;55.77
46778;BME280;32536;47.128;8.746;2024-02-21T04:20:37;92250.69;;;6.62;55.69
46778;BME280;32536;47.128;8.746;2024-02-21T04:23:03;92253.41;;;6.66;55.61
46778;BME280;32536;47.128;8.746;2024-02-21T04:25:30;92248.13;;;6.69;56.04
46778;BME280;32536;47.128;8.746;2024-02-21T04:27:57;92235.59;;;6.73;55.49
46778;BME280;32536;47.128;8.746;2024-02-21T04:30:24;92237.50;;;6.73;55.89
46778;BME280;32536;47.128;8.746;2024-02-21T04:32:50;92232.19;;;6.73;55.77
46778;BME280;32536;47.128;8.746;2024-02-21T04:35:17;92229.88;;;6.71;55.85
46778;BME280;32536;47.128;8.746;2024-02-21T04:37:44;92229.88;;;6.71;55.70
46778;BME280;32536;47.128;8.746;2024-02-21T04:40:11;92232.19;;;6.73;55.84
46778;BME280;32536;47.128;8.746;2024-02-21T04:42:39;92229.56;;;6.77;55.72
46778;BME280;32536;47.128;8.746;2024-02-21T04:45:06;92229.97;;;6.79;55.49
46778;BME280;32536;47.128;8.746;2024-02-21T04:47:33;92234.50;;;6.78;55.53
46778;BME280;32536;47.128;8.746;2024-02-21T04:50:00;92225.00;;;6.81;55.00
46778;BME280;32536;47.128;8.746;2024-02-21T04:52:27;92220.47;;;6.81;54.83
46778;BME280;32536;47.128;8.746;2024-02-21T04:54:54;92222.34;;;6.81;55.01
46778;BME280;32536;47.128;8.746;2024-02-21T04:57:20;92226.94;;;6.80;55.29
46778;BME280;32536;47.128;8.746;2024-02-21T04:59:47;92230.75;;;6.83;55.61
46778;BME280;32536;47.128;8.746;2024-02-21T05:02:14;92233.81;;;6.85;55.21
46778;BME280;32536;47.128;8.746;2024-02-21T05:04:42;92232.66;;;6.86;54.91
46778;BME280;32536;47.128;8.746;2024-02-21T05:07:09;92218.56;;;6.82;54.81
46778;BME280;32536;47.128;8.746;2024-02-21T05:09:37;92224.56;;;6.71;55.27
46778;BME280;32536;47.128;8.746;2024-02-21T05:12:04;92222.13;;;6.59;55.91
46778;BME280;32536;47.128;8.746;2024-02-21T05:14:31;92229.66;;;6.50;56.00
46778;BME280;32536;47.128;8.746;2024-02-21T05:16:58;92228.81;;;6.46;56.62
46778;BME280;32536;47.128;8.746;2024-02-21T05:19:25;92225.78;;;6.44;56.01
46778;BME280;32536;47.128;8.746;2024-02-21T05:21:51;92223.13;;;6.44;56.92
46778;BME280;32536;47.128;8.746;2024-02-21T05:24:18;92210.59;;;6.48;56.42
46778;BME280;32536;47.128;8.746;2024-02-21T05:26:45;92208.81;;;6.55;56.27
46778;BME280;32536;47.128;8.746;2024-02-21T05:29:12;92205.81;;;6.61;55.96
46778;BME280;32536;47.128;8.746;2024-02-21T05:34:18;92205.13;;;6.71;56.19
46778;BME280;32536;47.128;8.746;2024-02-21T05:36:45;92196.41;;;6.70;55.61
46778;BME280;32536;47.128;8.746;2024-02-21T05:39:13;92199.41;;;6.65;55.64
46778;BME280;32536;47.128;8.746;2024-02-21T05:41:40;92197.81;;;6.61;56.10
46778;BME280;32536;47.128;8.746;2024-02-21T05:44:07;92187.91;;;6.57;56.48
46778;BME280;32536;47.128;8.746;2024-02-21T05:46:34;92189.38;;;6.55;56.16
46778;BME280;32536;47.128;8.746;2024-02-21T05:49:01;92198.88;;;6.52;56.47
46778;BME280;32536;47.128;8.746;2024-02-21T05:51:31;92204.59;;;6.54;55.93
46778;BME280;32536;47.128;8.746;2024-02-21T05:53:59;92197.78;;;6.57;56.31
46778;BME280;32536;47.128;8.746;2024-02-21T05:56:26;92203.88;;;6.57;56.27
46778;BME280;32536;47.128;8.746;2024-02-21T05:58:52;92208.44;;;6.57;55.92
46778;BME280;32536;47.128;8.746;2024-02-21T06:01:19;92209.56;;;6.56;56.25
46778;BME280;32536;47.128;8.746;2024-02-21T06:03:47;92206.50;;;6.54;56.27
46778;BME280;32536;47.128;8.746;2024-02-21T06:06:14;92212.22;;;6.56;55.77
46778;BME280;32536;47.128;8.746;2024-02-21T06:08:41;92209.19;;;6.57;56.42
46778;BME280;32536;47.128;8.746;2024-02-21T06:11:08;92210.31;;;6.56;55.92
46778;BME280;32536;47.128;8.746;2024-02-21T06:13:38;92203.06;;;6.53;56.37
46778;BME280;32536;47.128;8.746;2024-02-21T06:16:07;92201.91;;;6.51;56.51
46778;BME280;32536;47.128;8.746;2024-02-21T06:18:36;92203.03;;;6.50;56.59
46778;BME280;32536;47.128;8.746;2024-02-21T06:21:03;92204.25;;;6.56;56.52
46778;BME280;32536;47.128;8.746;2024-02-21T06:23:31;92191.72;;;6.60;56.43
46778;BME280;32536;47.128;8.746;2024-02-21T06:25:57;92189.50;;;6.66;55.75
46778;BME280;32536;47.128;8.746;2024-02-21T06:28:24;92180.41;;;6.70;55.29
46778;BME280;32536;47.128;8.746;2024-02-21T06:30:51;92184.22;;;6.69;55.99
46778;BME280;32536;47.128;8.746;2024-02-21T06:33:18;92179.63;;;6.70;55.86
46778;BME280;32536;47.128;8.746;2024-02-21T06:35:48;92184.19;;;6.66;54.98
46778;BME280;32536;47.128;8.746;2024-02-21T06:38:18;92189.50;;;6.66;55.72
46778;BME280;32536;47.128;8.746;2024-02-21T06:40:45;92187.25;;;6.68;55.34
46778;BME280;32536;47.128;8.746;2024-02-21T06:43:17;92189.91;;;6.68;54.91
46778;BME280;32536;47.128;8.746;2024-02-21T06:45:45;92195.63;;;6.70;55.02
46778;BME280;32536;47.128;8.746;2024-02-21T06:48:53;92184.94;;;6.66;54.21
46778;BME280;32536;47.128;8.746;2024-02-21T06:51:22;92187.25;;;6.68;54.70
46778;BME280;32536;47.128;8.746;2024-02-21T06:53:49;92182.63;;;6.65;55.19
46778;BME280;32536;47.128;8.746;2024-02-21T06:56:15;92186.47;;;6.67;54.80
46778;BME280;32536;47.128;8.746;2024-02-21T06:58:42;92184.59;;;6.68;55.24
46778;BME280;32536;47.128;8.746;2024-02-21T07:01:10;92190.28;;;6.70;54.61
46778;BME280;32536;47.128;8.746;2024-02-21T07:03:37;92182.72;;;6.72;55.54
46778;BME280;32536;47.128;8.746;2024-02-21T07:06:04;92178.53;;;6.75;55.31
46778;BME280;32536;47.128;8.746;2024-02-21T07:08:31;92181.63;;;6.77;54.82
46778;BME280;32536;47.128;8.746;2024-02-21T07:10:57;92182.03;;;6.79;55.48
46778;BME280;32536;47.128;8.746;2024-02-21T07:13:24;92188.50;;;6.81;55.32
46778;BME280;32536;47.128;8.746;2024-02-21T07:15:51;92182.81;;;6.83;55.28
46778;BME280;32536;47.128;8.746;2024-02-21T07:18:18;92192.72;;;6.86;55.46
46778;BME280;32536;47.128;8.746;2024-02-21T07:20:45;92191.25;;;6.88;55.07
46778;BME280;32536;47.128;8.746;2024-02-21T07:23:12;92193.16;;;6.92;55.12
46778;BME280;32536;47.128;8.746;2024-02-21T07:25:39;92193.97;;;6.96;55.17
46778;BME280;32536;47.128;8.746;2024-02-21T07:28:06;92191.31;;;6.99;55.67
46778;BME280;32536;47.128;8.746;2024-02-21T07:30:32;92193.63;;;7.01;55.75
46778;BME280;32536;47.128;8.746;2024-02-21T07:32:59;92195.19;;;7.05;55.35
46778;BME280;32536;47.128;8.746;2024-02-21T07:35:26;92192.56;;;7.13;56.46
46778;BME280;32536;47.128;8.746;2024-02-21T07:37:53;92192.31;;;7.25;56.52
46778;BME280;32536;47.128;8.746;2024-02-21T07:40:19;92192.03;;;7.41;57.25
46778;BME280;32536;47.128;8.746;2024-02-21T07:42:46;92190.31;;;7.67;57.24
46778;BME280;32536;47.128;8.746;2024-02-21T07:45:13;92195.81;;;7.96;57.06
46778;BME280;32536;47.128;8.746;2024-02-21T07:47:40;92193.22;;;8.21;55.91
46778;BME280;32536;47.128;8.746;2024-02-21T07:50:07;92190.66;;;8.43;55.54
46778;BME280;32536;47.128;8.746;2024-02-21T07:52:34;92189.59;;;8.58;54.96
46778;BME280;32536;47.128;8.746;2024-02-21T07:55:00;92184.63;;;8.68;54.55
46778;BME280;32536;47.128;8.746;2024-02-21T07:57:27;92183.13;;;8.74;54.47
46778;BME280;32536;47.128;8.746;2024-02-21T07:59:54;92178.16;;;8.76;54.22
46778;BME280;32536;47.128;8.746;2024-02-21T08:02:21;92175.09;;;8.74;54.19
46778;BME280;32536;47.128;8.746;2024-02-21T08:04:47;92173.19;;;8.67;53.93
46778;BME280;32536;47.128;8.746;2024-02-21T08:07:14;92167.44;;;8.58;52.82
46778;BME280;32536;47.128;8.746;2024-02-21T08:09:41;92166.63;;;8.43;52.98
46778;BME280;32536;47.128;8.746;2024-02-21T08:12:08;92176.13;;;8.33;53.79
46778;BME280;32536;47.128;8.746;2024-02-21T08:14:35;92165.41;;;8.26;53.47
46778;BME280;32536;47.128;8.746;2024-02-21T08:17:01;92157.78;;;8.21;53.54
46778;BME280;32536;47.128;8.746;2024-02-21T08:19:29;92157.75;;;8.17;53.62
46778;BME280;32536;47.128;8.746;2024-02-21T08:21:56;92160.81;;;8.12;54.17
46778;BME280;32536;47.128;8.746;2024-02-21T08:24:23;92152.41;;;8.10;53.72
46778;BME280;32536;47.128;8.746;2024-02-21T08:26:50;92154.31;;;8.06;53.36
46778;BME280;32536;47.128;8.746;2024-02-21T08:29:17;92152.34;;;7.95;52.75
46778;BME280;32536;47.128;8.746;2024-02-21T08:31:43;92150.41;;;7.85;53.29
46778;BME280;32536;47.128;8.746;2024-02-21T08:34:10;92151.13;;;7.82;53.64
46778;BME280;32536;47.128;8.746;2024-02-21T08:36:38;92134.72;;;7.73;53.25
46778;BME280;32536;47.128;8.746;2024-02-21T08:39:05;92134.28;;;7.63;53.75
46778;BME280;32536;47.128;8.746;2024-02-21T08:41:33;92136.94;;;7.60;53.70
46778;BME280;32536;47.128;8.746;2024-02-21T08:44:01;92130.06;;;7.59;54.05
46778;BME280;32536;47.128;8.746;2024-02-21T08:46:28;92130.84;;;7.59;53.67
46778;BME280;32536;47.128;8.746;2024-02-21T08:49:01;92137.31;;;7.62;53.39
46778;BME280;32536;47.128;8.746;2024-02-21T08:51:29;92130.13;;;7.69;54.68
46778;BME280;32536;47.128;8.746;2024-02-21T08:53:55;92130.16;;;7.77;54.24
46778;BME280;32536;47.128;8.746;2024-02-21T08:56:22;92126.00;;;7.83;54.21
46778;BME280;32536;47.128;8.746;2024-02-21T08:58:49;92119.91;;;7.90;54.13
46778;BME280;32536;47.128;8.746;2024-02-21T09:01:16;92121.84;;;7.96;54.64
46778;BME280;32536;47.128;8.746;2024-02-21T09:03:42;92124.16;;;8.01;54.22
46778;BME280;32536;47.128;8.746;2024-02-21T09:06:10;92120.38;;;8.06;54.71
46778;BME280;32536;47.128;8.746;2024-02-21T09:08:38;92120.38;;;8.13;54.97
46778;BME280;32536;47.128;8.746;2024-02-21T09:11:06;92115.84;;;8.25;54.59
46778;BME280;32536;47.128;8.746;2024-02-21T09:13:32;92110.53;;;8.36;55.04
46778;BME280;32536;47.128;8.746;2024-02-21T09:15:59;92109.78;;;8.42;54.88
46778;BME280;32536;47.128;8.746;2024-02-21T09:18:26;92109.84;;;8.49;54.79
46778;BME280;32536;47.128;8.746;2024-02-21T09:20:53;92109.47;;;8.58;55.08
46778;BME280;32536;47.128;8.746;2024-02-21T09:23:19;92102.59;;;8.68;54.90
46778;BME280;32536;47.128;8.746;2024-02-21T09:25:46;92095.75;;;8.78;54.70
46778;BME280;32536;47.128;8.746;2024-02-21T09:28:13;92096.88;;;8.84;54.99
46778;BME280;32536;47.128;8.746;2024-02-21T09:30:40;92102.63;;;8.86;54.99
46778;BME280;32536;47.128;8.746;2024-02-21T09:33:06;92101.09;;;8.92;55.16
46778;BME280;32536;47.128;8.746;2024-02-21T09:35:33;92096.91;;;9.02;55.14
46778;BME280;32536;47.128;8.746;2024-02-21T09:38:01;92092.31;;;9.10;54.76
46778;BME280;32536;47.128;8.746;2024-02-21T09:40:28;92089.63;;;9.17;54.95
46778;BME280;32536;47.128;8.746;2024-02-21T09:43:02;92090.75;;;9.23;54.31
46778;BME280;32536;47.128;8.746;2024-02-21T09:45:33;92096.09;;;9.34;54.95
46778;BME280;32536;47.128;8.746;2024-02-21T09:48:27;92088.44;;;9.40;52.95
46778;BME280;32536;47.128;8.746;2024-02-21T09:51:30;92086.13;;;9.49;54.39
46778;BME280;32536;47.128;8.746;2024-02-21T09:54:00;92092.22;;;9.57;54.69
46778;BME280;32536;47.128;8.746;2024-02-21T09:56:28;92080.00;;;9.63;54.89
46778;BME280;32536;47.128;8.746;2024-02-21T09:58:56;92084.56;;;9.63;54.59
46778;BME280;32536;47.128;8.746;2024-02-21T10:01:23;92071.97;;;9.63;54.38
46778;BME280;32536;47.128;8.746;2024-02-21T10:03:51;92071.97;;;9.63;54.62
46778;BME280;32536;47.128;8.746;2024-02-21T10:06:17;92066.22;;;9.61;54.78
46778;BME280;32536;47.128;8.746;2024-02-21T10:08:51;92070.03;;;9.64;53.89
46778;BME280;32536;47.128;8.746;2024-02-21T10:11:25;92068.88;;;9.68;54.83
46778;BME280;32536;47.128;8.746;2024-02-21T10:14:05;92064.28;;;9.72;54.26
46778;BME280;32536;47.128;8.746;2024-02-21T10:16:33;92063.13;;;9.77;54.78
46778;BME280;32536;47.128;8.746;2024-02-21T10:19:00;92064.63;;;9.85;54.68
46778;BME280;32536;47.128;8.746;2024-02-21T10:21:29;92078.72;;;9.93;54.19
46778;BME280;32536;47.128;8.746;2024-02-21T10:23:55;92064.56;;;9.96;54.46
46778;BME280;32536;47.128;8.746;2024-02-21T10:26:22;92064.56;;;10.00;54.38
46778;BME280;32536;47.128;8.746;2024-02-21T10:28:49;92065.69;;;10.02;54.26
46778;BME280;32536;47.128;8.746;2024-02-21T10:31:24;92064.56;;;10.00;54.33
46778;BME280;32536;47.128;8.746;2024-02-21T10:33:59;92066.84;;;10.01;53.18
46778;BME280;32536;47.128;8.746;2024-02-21T10:36:29;92052.28;;;10.06;54.45
46778;BME280;32536;47.128;8.746;2024-02-21T10:38:56;92050.75;;;10.08;54.54
46778;BME280;32536;47.128;8.746;2024-02-21T10:41:23;92052.59;;;10.15;54.20
46778;BME280;32536;47.128;8.746;2024-02-21T10:43:52;92042.66;;;10.19;54.16
46778;BME280;32536;47.128;8.746;2024-02-21T10:46:21;92036.91;;;10.21;54.39
46778;BME280;32536;47.128;8.746;2024-02-21T10:49:10;92036.91;;;10.21;53.10
46778;BME280;32536;47.128;8.746;2024-02-21T10:51:43;92031.91;;;10.27;53.47
46778;BME280;32536;47.128;8.746;2024-02-21T10:56:56;92025.00;;;10.36;53.47
46778;BME280;32536;47.128;8.746;2024-02-21T10:59:25;92019.22;;;10.38;54.01
46778;BME280;32536;47.128;8.746;2024-02-21T11:01:52;92010.78;;;10.39;53.40
46778;BME280;32536;47.128;8.746;2024-02-21T11:04:19;92009.59;;;10.48;54.07
46778;BME280;32536;47.128;8.746;2024-02-21T11:06:47;92008.03;;;10.50;53.63
46778;BME280;32536;47.128;8.746;2024-02-21T11:09:15;92005.72;;;10.56;53.53
46778;BME280;32536;47.128;8.746;2024-02-21T11:11:44;92004.84;;;10.66;53.35
46778;BME280;32536;47.128;8.746;2024-02-21T11:14:17;91997.13;;;10.76;52.15
46778;BME280;32536;47.128;8.746;2024-02-21T11:16:46;91989.75;;;10.87;53.32
46778;BME280;32536;47.128;8.746;2024-02-21T11:19:24;91977.47;;;10.89;51.98
46778;BME280;32536;47.128;8.746;2024-02-21T11:21:53;91980.09;;;10.97;53.06
46778;BME280;32536;47.128;8.746;2024-02-21T11:24:27;91976.59;;;11.03;53.02
46778;BME280;32536;47.128;8.746;2024-02-21T11:27:33;91967.75;;;11.07;52.98
46778;BME280;32536;47.128;8.746;2024-02-21T11:29:59;91957.34;;;11.12;53.11
46778;BME280;32536;47.128;8.746;2024-02-21T11:32:26;91952.31;;;11.14;52.88
46778;BME280;32536;47.128;8.746;2024-02-21T11:37:28;91941.91;;;11.24;53.58
46778;BME280;32536;47.128;8.746;2024-02-21T11:39:59;91934.56;;;11.28;52.98
46778;BME280;32536;47.128;8.746;2024-02-21T11:42:27;91929.94;;;11.32;53.05
46778;BME280;32536;47.128;8.746;2024-02-21T11:44:57;91925.31;;;11.32;52.30
46778;BME280;32536;47.128;8.746;2024-02-21T11:47:25;91931.47;;;11.33;53.12
46778;BME280;32536;47.128;8.746;2024-02-21T11:49:54;91923.38;;;11.36;53.21
46778;BME280;32536;47.128;8.746;2024-02-21T11:52:25;91923.31;;;11.40;52.76
46778;BME280;32536;47.128;8.746;2024-02-21T11:54:53;91916.41;;;11.43;53.10
46778;BME280;32536;47.128;8.746;2024-02-21T11:57:24;91922.06;;;11.48;52.99
46778;BME280;32536;47.128;8.746;2024-02-21T11:59:53;91910.91;;;11.53;53.28
46778;BME280;32536;47.128;8.746;2024-02-21T12:02:20;91903.97;;;11.56;52.52
46778;BME280;32536;47.128;8.746;2024-02-21T12:04:47;91894.34;;;11.59;53.19
46778;BME280;32536;47.128;8.746;2024-02-21T12:07:14;91896.94;;;11.66;53.35
46778;BME280;32536;47.128;8.746;2024-02-21T12:09:41;91890.34;;;11.71;52.53
46778;BME280;32536;47.128;8.746;2024-02-21T12:12:08;91882.63;;;11.73;53.14
46778;BME280;32536;47.128;8.746;2024-02-21T12:14:35;91878.06;;;11.73;52.70
46778;BME280;32536;47.128;8.746;2024-02-21T12:17:03;91876.13;;;11.74;52.70
46778;BME280;32536;47.128;8.746;2024-02-21T12:19:31;91873.75;;;11.79;52.64
46778;BME280;32536;47.128;8.746;2024-02-21T12:22:01;91870.22;;;11.82;52.08
46778;BME280;32536;47.128;8.746;2024-02-21T12:24:31;91861.38;;;11.85;52.33
46778;BME280;32536;47.128;8.746;2024-02-21T12:26:58;91866.34;;;11.87;52.75
46778;BME280;32536;47.128;8.746;2024-02-21T12:29:25;91852.13;;;11.90;52.80
46778;BME280;32536;47.128;8.746;2024-02-21T12:31:52;91852.44;;;11.92;53.17
46778;BME280;32536;47.128;8.746;2024-02-21T12:34:20;91844.34;;;11.96;53.01
46778;BME280;32536;47.128;8.746;2024-02-21T12:36:48;91843.56;;;11.99;52.82
46778;BME280;32536;47.128;8.746;2024-02-21T12:39:15;91842.41;;;12.00;52.99
46778;BME280;32536;47.128;8.746;2024-02-21T12:41:42;91839.25;;;12.05;52.88
46778;BME280;32536;47.128;8.746;2024-02-21T12:44:10;91844.91;;;12.11;52.81
46778;BME280;32536;47.128;8.746;2024-02-21T12:46:38;91838.66;;;12.17;52.65
46778;BME280;32536;47.128;8.746;2024-02-21T12:49:18;91834.28;;;12.27;51.57
46778;BME280;32536;47.128;8.746;2024-02-21T12:51:44;91831.06;;;12.36;52.36
46778;BME280;32536;47.128;8.746;2024-02-21T12:54:14;91822.94;;;12.40;52.67
46778;BME280;32536;47.128;8.746;2024-02-21T12:56:41;91818.97;;;12.48;52.33
46778;BME280;32536;47.128;8.746;2024-02-21T12:59:08;91816.97;;;12.52;52.60
46778;BME280;32536;47.128;8.746;2024-02-21T13:01:35;91813.47;;;12.55;52.36
46778;BME280;32536;47.128;8.746;2024-02-21T13:04:03;91807.94;;;12.62;52.58
46778;BME280;32536;47.128;8.746;2024-02-21T13:06:30;91802.91;;;12.64;52.30
46778;BME280;32536;47.128;8.746;2024-02-21T13:08:56;91798.66;;;12.67;52.77
46778;BME280;32536;47.128;8.746;2024-02-21T13:11:24;91793.97;;;12.71;52.56
46778;BME280;32536;47.128;8.746;2024-02-21T13:13:54;91787.84;;;12.71;52.15
46778;BME280;32536;47.128;8.746;2024-02-21T13:16:20;91790.59;;;12.67;52.16
46778;BME280;32536;47.128;8.746;2024-02-21T13:18:48;91785.28;;;12.63;52.70
46778;BME280;32536;47.128;8.746;2024-02-21T13:21:15;91777.28;;;12.60;52.25